Time;durP1;ratioP1;P1;durP2;ratioP2;P2;SDS_P1;SDS_P2;PMS_P1;PMS_P2;Temp;Humidity;BMP_temperature;BMP_pressure;BME280_temperature;BME280_humidity;BME280_pressure;Samples;Min_cycle;Max_cycle;Signal;HPM_P1;HPM_P2
2021/07/16 00:03:34;;;;;;;6.28;5.10;;;21.90;74.20;;;;;;10460253;28;20537;-54
2021/07/16 00:08:35;;;;;;;8.30;5.32;;;21.90;74.30;;;;;;10459900;28;20056;-55
2021/07/16 00:13:37;;;;;;;6.35;5.28;;;21.90;74.20;;;;;;10458834;28;20061;-55
2021/07/16 00:18:38;;;;;;;6.57;5.20;;;21.90;74.80;;;;;;10459911;28;20029;-55
2021/07/16 00:23:39;;;;;;;5.40;4.60;;;21.90;74.20;;;;;;10448228;28;20481;-54
2021/07/16 00:28:40;;;;;;;7.75;5.20;;;21.90;74.20;;;;;;10459693;28;20037;-56
2021/07/16 00:33:41;;;;;;;5.80;5.05;;;21.90;74.10;;;;;;10459353;28;20086;-55
2021/07/16 00:38:42;;;;;;;6.78;4.95;;;21.80;74.00;;;;;;10458753;28;20053;-55
2021/07/16 00:43:43;;;;;;;6.90;4.75;;;21.90;74.20;;;;;;10458988;28;20112;-56
2021/07/16 00:48:43;;;;;;;5.55;4.53;;;21.80;74.00;;;;;;10458497;28;20056;-56
2021/07/16 00:53:44;;;;;;;6.78;4.95;;;21.80;74.00;;;;;;10458604;28;20033;-55
2021/07/16 00:58:45;;;;;;;7.25;4.78;;;21.90;74.10;;;;;;10440371;28;20494;-55
2021/07/16 01:03:49;;;;;;;7.22;5.70;;;21.80;74.00;;;;;;10440130;28;20040;-55
2021/07/16 01:08:50;;;;;;;8.40;5.30;;;21.80;73.90;;;;;;10440321;28;20096;-55
2021/07/16 01:13:52;;;;;;;6.75;5.00;;;21.80;73.90;;;;;;10457680;28;20124;-55
2021/07/16 01:18:54;;;;;;;5.97;5.38;;;21.80;74.00;;;;;;10439760;28;20029;-56
2021/07/16 01:23:54;;;;;;;5.95;5.15;;;21.80;73.90;;;;;;10463781;28;20037;-56
2021/07/16 01:28:56;;;;;;;7.45;5.07;;;21.80;73.90;;;;;;10440018;28;20036;-55
2021/07/16 01:33:56;;;;;;;6.85;5.03;;;21.80;73.80;;;;;;10456496;28;20032;-55
2021/07/16 01:38:57;;;;;;;7.38;4.70;;;21.80;73.90;;;;;;10456503;28;20128;-56
2021/07/16 01:43:58;;;;;;;7.68;6.05;;;21.80;73.80;;;;;;10456266;28;20114;-55
2021/07/16 01:48:59;;;;;;;7.57;5.18;;;21.80;73.80;;;;;;10456060;28;20060;-56
2021/07/16 01:54:00;;;;;;;7.75;5.10;;;21.80;73.90;;;;;;10456355;28;20106;-56
2021/07/16 01:59:01;;;;;;;5.82;5.07;;;21.80;73.80;;;;;;10456327;28;20064;-55
2021/07/16 02:04:01;;;;;;;5.63;4.70;;;21.80;73.80;;;;;;10456103;28;20116;-56
2021/07/16 02:09:08;;;;;;;6.63;5.65;;;21.70;73.70;;;;;;10438365;28;20103;-56
2021/07/16 02:14:08;;;;;;;6.32;5.32;;;21.80;73.80;;;;;;10455404;28;20028;-55
2021/07/16 02:19:09;;;;;;;7.05;5.43;;;21.70;73.70;;;;;;10455380;28;20121;-55
2021/07/16 02:24:10;;;;;;;5.55;4.38;;;21.80;73.80;;;;;;10455430;28;20029;-55
2021/07/16 02:29:10;;;;;;;6.80;5.22;;;21.70;73.70;;;;;;10455180;28;20595;-56
2021/07/16 02:34:11;;;;;;;5.78;4.90;;;21.70;73.60;;;;;;10437329;28;20462;-55
2021/07/16 02:39:12;;;;;;;6.78;6.07;;;21.70;73.70;;;;;;10460926;28;20557;-55
2021/07/16 02:44:12;;;;;;;6.00;5.00;;;21.70;73.60;;;;;;10463419;28;20028;-53
2021/07/16 02:49:13;;;;;;;6.53;5.65;;;21.70;73.60;;;;;;10463232;28;20104;-54
2021/07/16 02:54:14;;;;;;;8.27;4.72;;;21.70;73.60;;;;;;10463192;28;20040;-55
2021/07/16 02:59:14;;;;;;;7.60;5.35;;;21.70;73.60;;;;;;10463097;28;20036;-55
2021/07/16 03:04:15;;;;;;;7.22;5.88;;;21.70;73.50;;;;;;10462356;28;20124;-55
2021/07/16 03:09:16;;;;;;;7.28;4.60;;;21.70;73.50;;;;;;10462762;28;20064;-55
2021/07/16 03:14:17;;;;;;;8.30;6.00;;;21.70;73.50;;;;;;10462121;28;20032;-55
2021/07/16 03:19:18;;;;;;;6.57;5.47;;;21.70;73.40;;;;;;10463274;28;20033;-54
2021/07/16 03:24:19;;;;;;;7.53;5.18;;;21.70;73.50;;;;;;10449404;28;20033;-55
2021/07/16 03:29:20;;;;;;;6.45;5.75;;;21.70;73.40;;;;;;10462026;28;20025;-55
2021/07/16 03:34:20;;;;;;;5.50;4.97;;;21.70;73.40;;;;;;10460698;28;20119;-56
2021/07/16 03:39:21;;;;;;;7.03;5.95;;;21.70;73.40;;;;;;10457975;28;20089;-55
2021/07/16 03:44:22;;;;;;;6.18;5.50;;;21.60;73.30;;;;;;10458759;28;20037;-54
2021/07/16 03:49:23;;;;;;;6.20;5.10;;;21.70;73.30;;;;;;10442091;28;20027;-55
2021/07/16 03:54:24;;;;;;;9.27;6.13;;;21.70;73.30;;;;;;10460409;28;20052;-55
2021/07/16 03:59:25;;;;;;;6.88;5.63;;;21.70;73.30;;;;;;10460507;28;20112;-55
2021/07/16 04:04:26;;;;;;;7.13;5.47;;;21.70;73.20;;;;;;10460685;28;20061;-55
2021/07/16 04:09:29;;;;;;;7.65;5.60;;;21.70;73.20;;;;;;10460322;28;20108;-55
2021/07/16 04:14:39;;;;;;;7.50;5.38;;;21.60;73.20;;;;;;10459516;28;20401;-55
2021/07/16 04:19:41;;;;;;;7.35;4.97;;;21.60;73.20;;;;;;10464141;28;20461;-55
2021/07/16 04:24:44;;;;;;;6.82;6.00;;;21.60;73.10;;;;;;10461650;28;20032;-55
2021/07/16 04:29:45;;;;;;;5.85;5.13;;;21.60;73.10;;;;;;10459351;28;20108;-55
2021/07/16 04:34:46;;;;;;;7.63;6.22;;;21.60;73.70;;;;;;10457731;28;20074;-55
2021/07/16 04:39:46;;;;;;;6.88;5.18;;;21.60;73.10;;;;;;10439171;28;20455;-55
2021/07/16 04:44:49;;;;;;;6.93;5.07;;;21.60;73.10;;;;;;10458741;28;20036;-55
2021/07/16 04:49:49;;;;;;;6.75;5.15;;;21.60;73.10;;;;;;10458585;28;20072;-55
2021/07/16 04:54:50;;;;;;;7.53;5.70;;;21.60;73.00;;;;;;10458754;28;20029;-55
2021/07/16 04:59:51;;;;;;;10.65;5.82;;;21.60;73.00;;;;;;10439763;28;20396;-55
2021/07/16 05:04:51;;;;;;;12.40;5.82;;;21.60;73.40;;;;;;10457166;28;20057;-56
2021/07/16 05:09:52;;;;;;;10.27;5.88;;;21.60;73.50;;;;;;10457944;28;20469;-56
2021/07/16 05:14:54;;;;;;;8.65;5.50;;;21.70;74.10;;;;;;10457545;28;20441;-57
2021/07/16 05:19:54;;;;;;;8.88;5.05;;;21.70;73.90;;;;;;10439694;28;20033;-56
2021/07/16 05:24:55;;;;;;;7.78;5.13;;;21.70;74.10;;;;;;10454607;28;20477;-56
2021/07/16 05:29:56;;;;;;;15.43;5.95;;;21.80;74.20;;;;;;10455909;28;20476;-56
2021/07/16 05:34:56;;;;;;;7.00;5.05;;;21.80;74.00;;;;;;10455889;28;20106;-57
2021/07/16 05:39:57;;;;;;;13.10;6.38;;;21.70;74.10;;;;;;10456203;28;20425;-56
2021/07/16 05:44:58;;;;;;;13.15;6.60;;;21.80;74.00;;;;;;10438564;28;20036;-57
2021/07/16 05:49:59;;;;;;;8.88;5.68;;;21.70;73.90;;;;;;10456337;28;20057;-56
2021/07/16 05:55:00;;;;;;;19.42;5.93;;;21.70;73.80;;;;;;10454954;28;20351;-55
2021/07/16 06:00:00;;;;;;;23.88;6.50;;;21.80;74.30;;;;;;10454685;28;20029;-57
2021/07/16 06:05:01;;;;;;;21.80;5.93;;;21.80;74.10;;;;;;10437457;28;20460;-55
2021/07/16 06:10:04;;;;;;;13.82;6.07;;;21.90;74.20;;;;;;10454649;28;20064;-53
2021/07/16 06:15:06;;;;;;;19.90;6.50;;;21.80;73.90;;;;;;10452299;28;20060;-52
2021/07/16 06:20:10;;;;;;;16.75;6.68;;;21.80;73.90;;;;;;10460220;28;20372;-53
2021/07/16 06:25:13;;;;;;;13.98;6.78;;;21.70;73.80;;;;;;10454570;28;20057;-54
2021/07/16 06:30:15;;;;;;;12.45;5.00;;;21.70;73.80;;;;;;10455047;28;20044;-55
2021/07/16 06:35:16;;;;;;;10.02;6.40;;;21.70;73.80;;;;;;10455090;28;20037;-52
2021/07/16 06:40:16;;;;;;;10.55;5.63;;;21.70;73.70;;;;;;10454838;28;20106;-53
2021/07/16 06:45:17;;;;;;;17.20;7.28;;;21.70;73.80;;;;;;10454815;28;20122;-54
2021/07/16 06:50:18;;;;;;;12.95;5.30;;;21.70;74.00;;;;;;10436669;28;20115;-52
2021/07/16 06:55:18;;;;;;;11.02;5.22;;;21.70;74.00;;;;;;10454801;28;20033;-53
2021/07/16 07:00:19;;;;;;;12.95;5.53;;;21.70;74.10;;;;;;10454806;28;20039;-52
2021/07/16 07:05:24;;;;;;;12.18;5.97;;;21.70;74.30;;;;;;10454485;28;20056;-53
2021/07/16 07:10:25;;;;;;;11.55;5.13;;;21.70;74.40;;;;;;10454240;28;20022;-53
2021/07/16 07:15:26;;;;;;;11.50;5.50;;;21.70;74.50;;;;;;10454079;28;20382;-52
2021/07/16 07:20:26;;;;;;;12.30;6.20;;;21.70;74.50;;;;;;10455467;28;20118;-54
2021/07/16 07:25:27;;;;;;;16.80;6.10;;;21.70;74.50;;;;;;10459147;28;20100;-53
2021/07/16 07:30:28;;;;;;;13.60;6.45;;;21.70;74.50;;;;;;10443588;28;20052;-54
2021/07/16 07:35:30;;;;;;;16.48;5.72;;;21.70;74.60;;;;;;10443705;28;20029;-53
2021/07/16 07:40:31;;;;;;;13.80;5.22;;;21.70;74.70;;;;;;10461274;28;20481;-54
2021/07/16 07:45:33;;;;;;;18.67;6.22;;;21.70;74.60;;;;;;10452245;28;20509;-54
2021/07/16 07:50:34;;;;;;;16.52;7.38;;;21.70;74.60;;;;;;10460102;28;20100;-52
2021/07/16 07:55:35;;;;;;;12.77;5.70;;;21.70;74.70;;;;;;10441599;28;20108;-57
2021/07/16 08:00:36;;;;;;;20.15;5.80;;;21.70;74.60;;;;;;10460021;28;20070;-53
2021/07/16 08:05:36;;;;;;;13.55;6.10;;;21.70;74.50;;;;;;10459847;28;20467;-55
2021/07/16 08:10:37;;;;;;;9.38;5.70;;;21.70;74.40;;;;;;10442319;28;20033;-54
2021/07/16 08:15:38;;;;;;;20.90;6.15;;;21.70;74.50;;;;;;10459607;28;20025;-54
2021/07/16 08:20:39;;;;;;;13.23;6.22;;;21.70;74.30;;;;;;10466178;28;20112;-53
2021/07/16 08:25:40;;;;;;;14.93;5.95;;;21.70;74.30;;;;;;10459557;28;20036;-55
2021/07/16 08:30:40;;;;;;;13.23;6.32;;;21.70;74.20;;;;;;10459075;28;20021;-54
2021/07/16 08:35:41;;;;;;;13.13;6.85;;;21.70;74.10;;;;;;10458172;28;20116;-54
2021/07/16 08:40:43;;;;;;;12.18;5.88;;;21.70;74.10;;;;;;10423623;28;20037;-53
2021/07/16 08:45:51;;;;;;;10.80;5.75;;;21.80;74.10;;;;;;10459385;28;20029;-54
2021/07/16 08:50:53;;;;;;;13.40;5.63;;;21.70;73.90;;;;;;10458129;28;20426;-54
2021/07/16 08:55:54;;;;;;;13.85;5.00;;;21.70;73.80;;;;;;10440535;28;20068;-54
2021/07/16 09:00:55;;;;;;;14.10;5.65;;;21.70;73.80;;;;;;10458193;28;20102;-54
2021/07/16 09:05:56;;;;;;;12.23;5.05;;;21.70;73.80;;;;;;10457786;28;20371;-54
2021/07/16 09:11:00;;;;;;;11.18;5.90;;;21.70;73.70;;;;;;10457464;28;20537;-53
2021/07/16 09:16:01;;;;;;;10.35;4.75;;;21.70;73.70;;;;;;10457465;28;20033;-55
2021/07/16 09:21:01;;;;;;;8.30;5.28;;;21.70;73.70;;;;;;10463998;28;20087;-53
2021/07/16 09:26:15;;;;;;;17.50;6.85;;;21.70;73.70;;;;;;10457396;28;20037;-54
2021/07/16 09:31:27;;;;;;;13.82;6.70;;;21.70;73.60;;;;;;10456707;28;20048;-53
2021/07/16 09:36:34;;;;;;;17.63;6.10;;;21.70;73.70;;;;;;10455917;28;20108;-51
2021/07/16 09:41:54;;;;;;;15.65;6.45;;;21.80;73.80;;;;;;10438337;28;20080;-51
2021/07/16 09:47:19;;;;;;;;;;;21.80;74.10;;;;;;10441684;28;20429;-51
2021/07/16 09:52:21;;;;;;;14.95;5.43;;;21.80;74.20;;;;;;10455475;28;19934;-52
2021/07/16 09:57:39;;;;;;;13.90;6.20;;;21.80;74.60;;;;;;10455406;28;20025;-54
2021/07/16 10:02:43;;;;;;;12.55;6.03;;;21.80;74.20;;;;;;10454910;28;20033;-53
2021/07/16 10:07:46;;;;;;;18.00;6.15;;;21.90;74.60;;;;;;10438131;28;20021;-56
2021/07/16 10:12:49;;;;;;;12.98;5.28;;;21.90;74.70;;;;;;10455432;28;20077;-54
2021/07/16 10:17:50;;;;;;;10.63;5.85;;;21.90;74.40;;;;;;10455387;28;20068;-52
2021/07/16 10:22:53;;;;;;;16.65;6.00;;;21.90;74.40;;;;;;10461988;28;20037;-53
2021/07/16 10:27:53;;;;;;;12.48;4.78;;;21.90;74.40;;;;;;10455033;28;20064;-52
2021/07/16 10:32:55;;;;;;;14.88;6.60;;;21.90;74.20;;;;;;10455071;28;20112;-47
2021/07/16 10:38:02;;;;;;;12.88;6.80;;;21.90;74.30;;;;;;10454833;28;20033;-53
2021/07/16 10:43:05;;;;;;;12.75;5.40;;;21.90;74.10;;;;;;10455114;28;20036;-52
2021/07/16 10:48:19;;;;;;;13.60;6.47;;;21.80;74.10;;;;;;10430220;28;20421;-53
2021/07/16 10:53:29;;;;;;;13.25;5.72;;;21.90;74.30;;;;;;10453533;28;20040;-53
2021/07/16 10:58:43;;;;;;;13.00;5.43;;;21.90;74.30;;;;;;10457235;28;20040;-54
2021/07/16 11:03:51;;;;;;;10.20;5.80;;;21.90;74.40;;;;;;10462007;28;20032;-51
2021/07/16 11:08:54;;;;;;;15.43;7.20;;;21.80;74.30;;;;;;10462557;28;20036;-52
2021/07/16 11:13:59;;;;;;;12.13;5.75;;;21.80;74.50;;;;;;10462017;28;20025;-50
2021/07/16 11:19:07;;;;;;;17.58;6.38;;;21.80;74.60;;;;;;10461887;28;20033;-50
2021/07/16 11:24:31;;;;;;;14.35;6.00;;;21.80;74.70;;;;;;10468727;28;20485;-51
2021/07/16 11:29:36;;;;;;;12.80;6.50;;;21.80;74.70;;;;;;10461799;28;20024;-51
2021/07/16 11:34:58;;;;;;;18.63;7.65;;;22.00;78.50;;;;;;10461426;28;20029;-51
2021/07/16 11:40:27;;;;;;;18.77;6.85;;;22.10;77.40;;;;;;10460530;28;20076;-51
2021/07/16 11:45:32;;;;;;;19.15;7.35;;;22.10;77.10;;;;;;10460912;28;20029;-50
2021/07/16 11:50:33;;;;;;;17.23;7.47;;;22.10;76.50;;;;;;10460735;28;20029;-48
2021/07/16 11:55:33;;;;;;;17.70;6.85;;;22.00;76.20;;;;;;10460594;28;20107;-49
2021/07/16 12:00:39;;;;;;;20.13;7.00;;;22.00;76.10;;;;;;10422274;28;21592;-50
2021/07/16 12:05:51;;;;;;;14.27;5.90;;;22.00;76.00;;;;;;10435802;28;20469;-51
2021/07/16 12:11:05;;;;;;;12.90;6.60;;;22.00;75.90;;;;;;10459822;28;20385;-50
2021/07/16 12:16:12;;;;;;;18.85;7.50;;;22.00;75.70;;;;;;10437635;28;20421;-53
2021/07/16 12:21:17;;;;;;;18.65;7.45;;;21.90;75.40;;;;;;10448606;28;20027;-55
2021/07/16 12:26:24;;;;;;;17.25;8.82;;;22.00;75.80;;;;;;10459230;28;20035;-57
2021/07/16 12:31:25;;;;;;;26.40;7.68;;;22.00;75.90;;;;;;10459522;28;20032;-55
2021/07/16 12:36:31;;;;;;;33.90;9.15;;;22.00;75.80;;;;;;10458852;28;20021;-56
2021/07/16 12:41:31;;;;;;;23.08;9.52;;;22.00;75.90;;;;;;10456303;28;20055;-55
2021/07/16 12:46:32;;;;;;;23.60;9.07;;;22.00;76.30;;;;;;10457404;28;20036;-55
2021/07/16 12:51:39;;;;;;;26.88;8.20;;;22.00;76.60;;;;;;10457393;28;20037;-52
2021/07/16 12:56:39;;;;;;;21.90;8.98;;;22.00;76.30;;;;;;10458306;28;20029;-54
2021/07/16 13:01:52;;;;;;;22.63;8.80;;;22.00;76.20;;;;;;10437878;28;20029;-55
2021/07/16 13:06:54;;;;;;;19.20;7.30;;;22.00;75.80;;;;;;10453242;28;20025;-55
2021/07/16 13:12:04;;;;;;;19.55;8.32;;;22.00;75.80;;;;;;10456988;28;20393;-55
2021/07/16 13:17:37;;;;;;;14.10;8.70;;;22.00;75.60;;;;;;10456919;28;20040;-55
2021/07/16 13:22:44;;;;;;;20.63;7.97;;;22.00;75.50;;;;;;10440002;28;20040;-55
2021/07/16 13:27:48;;;;;;;16.17;8.52;;;22.00;75.50;;;;;;10456014;28;20021;-58
2021/07/16 13:32:48;;;;;;;16.48;6.95;;;22.00;75.50;;;;;;10438322;28;20029;-55
2021/07/16 13:37:49;;;;;;;19.10;7.05;;;22.00;75.30;;;;;;10456205;28;20526;-55
2021/07/16 13:42:50;;;;;;;15.27;7.13;;;22.00;75.10;;;;;;10454758;28;20416;-55
2021/07/16 13:47:50;;;;;;;15.63;7.28;;;22.00;75.50;;;;;;10455442;28;20056;-56
2021/07/16 13:52:51;;;;;;;21.00;8.15;;;22.00;74.80;;;;;;10455227;28;20040;-54
2021/07/16 13:57:52;;;;;;;16.27;7.85;;;22.00;74.60;;;;;;10455337;28;20029;-54
2021/07/16 14:02:52;;;;;;;19.27;8.82;;;22.00;74.60;;;;;;10454736;28;20057;-52
2021/07/16 14:07:53;;;;;;;16.00;7.05;;;22.00;75.20;;;;;;10437117;28;20029;-49
2021/07/16 14:12:54;;;;;;;22.13;7.47;;;22.00;74.90;;;;;;10454778;28;20099;-48
2021/07/16 14:17:55;;;;;;;16.55;7.50;;;22.00;74.60;;;;;;10454873;28;20159;-55
2021/07/16 14:22:55;;;;;;;15.23;7.82;;;22.00;74.50;;;;;;10460328;28;20053;-54
2021/07/16 14:27:56;;;;;;;24.63;8.90;;;22.10;74.60;;;;;;10453424;28;20033;-57
2021/07/16 14:32:57;;;;;;;18.83;8.68;;;22.10;75.40;;;;;;10450700;28;20024;-57
2021/07/16 14:37:58;;;;;;;17.50;8.25;;;22.10;75.10;;;;;;10459139;28;20060;-55
2021/07/16 14:42:59;;;;;;;20.33;8.30;;;22.00;75.10;;;;;;10462153;28;20498;-57
2021/07/16 14:48:00;;;;;;;19.80;7.53;;;22.10;75.20;;;;;;10461974;28;20025;-56
2021/07/16 14:53:01;;;;;;;23.35;9.18;;;22.10;75.30;;;;;;10452414;28;20029;-57
2021/07/16 14:58:02;;;;;;;24.80;10.02;;;22.10;75.30;;;;;;10457808;28;20044;-56
2021/07/16 15:03:03;;;;;;;19.25;8.55;;;22.10;75.40;;;;;;10459932;28;20025;-57
2021/07/16 15:08:04;;;;;;;18.98;9.80;;;22.10;75.30;;;;;;10459990;28;20029;-56
2021/07/16 15:13:05;;;;;;;17.27;8.55;;;22.10;75.40;;;;;;10458973;28;20028;-57
2021/07/16 15:18:06;;;;;;;19.55;8.82;;;22.20;75.70;;;;;;10469582;28;20037;-58
2021/07/16 15:23:08;;;;;;;21.88;9.85;;;22.20;75.70;;;;;;10467412;28;20512;-59
2021/07/16 15:28:09;;;;;;;25.55;10.50;;;22.20;75.60;;;;;;10461714;28;20048;-57
2021/07/16 15:33:12;;;;;;;22.67;9.23;;;22.20;75.60;;;;;;10461097;28;20033;-57
2021/07/16 15:38:12;;;;;;;21.73;8.82;;;22.30;75.80;;;;;;10443322;28;20788;-56
2021/07/16 15:43:13;;;;;;;25.73;8.93;;;22.30;75.50;;;;;;10460360;28;20029;-55
2021/07/16 15:48:14;;;;;;;23.30;9.07;;;22.30;75.30;;;;;;10460588;28;20083;-55
2021/07/16 15:53:15;;;;;;;27.70;11.82;;;22.30;74.90;;;;;;10461036;28;20067;-53
2021/07/16 15:58:15;;;;;;;19.98;9.27;;;22.20;75.00;;;;;;10460203;28;20060;-51
2021/07/16 16:03:16;;;;;;;28.35;11.98;;;22.20;75.20;;;;;;10459672;28;20119;-52
2021/07/16 16:08:17;;;;;;;18.02;10.93;;;22.20;75.60;;;;;;10459673;28;20029;-54
2021/07/16 16:13:19;;;;;;;21.85;9.80;;;22.20;76.30;;;;;;10460453;28;20047;-55
2021/07/16 16:18:20;;;;;;;20.70;9.38;;;22.20;77.10;;;;;;10458329;28;20025;-57
2021/07/16 16:23:20;;;;;;;18.38;9.60;;;22.20;76.30;;;;;;10437928;28;20404;-58
2021/07/16 16:28:21;;;;;;;20.77;9.30;;;22.30;77.00;;;;;;10459646;28;20065;-58
2021/07/16 16:33:22;;;;;;;20.08;9.70;;;22.30;76.50;;;;;;10459296;28;20040;-57
2021/07/16 16:38:22;;;;;;;16.58;8.85;;;22.40;76.70;;;;;;10458932;28;20094;-57
2021/07/16 16:43:23;;;;;;;16.23;8.95;;;22.30;76.30;;;;;;10459106;28;20031;-55
2021/07/16 16:48:24;;;;;;;17.65;8.80;;;22.40;76.60;;;;;;10458986;28;20025;-57
2021/07/16 16:53:24;;;;;;;16.05;8.82;;;22.40;76.30;;;;;;10457882;28;20025;-57
2021/07/16 16:58:26;;;;;;;19.77;8.85;;;22.40;76.30;;;;;;10454761;28;20116;-57
2021/07/16 17:03:27;;;;;;;21.35;9.63;;;22.40;76.20;;;;;;10457747;28;20055;-58
2021/07/16 17:08:27;;;;;;;19.58;9.32;;;22.30;76.30;;;;;;10458082;28;20032;-56
2021/07/16 17:13:28;;;;;;;16.00;10.32;;;22.30;76.20;;;;;;10457612;28;20032;-57
2021/07/16 17:18:30;;;;;;;14.18;8.73;;;22.30;76.10;;;;;;10446387;28;20032;-56
2021/07/16 17:23:30;;;;;;;17.50;10.07;;;22.30;76.20;;;;;;10447310;28;20049;-56
2021/07/16 17:28:32;;;;;;;15.95;9.20;;;22.30;76.10;;;;;;10456315;28;20079;-57
2021/07/16 17:33:33;;;;;;;23.63;10.00;;;22.30;76.10;;;;;;10452615;28;20021;-55
2021/07/16 17:38:33;;;;;;;15.50;9.70;;;22.30;75.80;;;;;;10452729;28;20091;-56
2021/07/16 17:43:34;;;;;;;23.25;8.75;;;22.20;75.90;;;;;;10438737;28;20029;-56
2021/07/16 17:48:34;;;;;;;11.05;8.02;;;22.20;75.90;;;;;;10455856;28;20057;-56
2021/07/16 17:53:36;;;;;;;16.10;8.50;;;22.20;75.90;;;;;;10455643;28;20048;-56
2021/07/16 17:58:37;;;;;;;11.73;8.38;;;22.10;75.80;;;;;;10453787;28;20029;-56
2021/07/16 18:03:38;;;;;;;13.38;8.52;;;22.20;76.00;;;;;;10435357;28;20033;-54
2021/07/16 18:08:39;;;;;;;12.75;8.85;;;22.10;75.90;;;;;;10445576;28;20167;-56
2021/07/16 18:13:39;;;;;;;16.02;9.23;;;22.10;75.80;;;;;;10444318;28;20048;-56
2021/07/16 18:18:40;;;;;;;15.38;9.30;;;22.20;75.90;;;;;;10452769;28;20028;-56
2021/07/16 18:23:41;;;;;;;15.15;8.43;;;22.10;75.70;;;;;;10453174;28;20029;-58
2021/07/16 18:28:46;;;;;;;15.68;8.63;;;22.20;75.70;;;;;;10453187;28;20029;-57
2021/07/16 18:33:47;;;;;;;12.80;9.07;;;22.10;75.70;;;;;;10453767;28;20397;-57
2021/07/16 18:38:48;;;;;;;16.10;9.25;;;22.20;75.70;;;;;;10427481;28;20053;-57
2021/07/16 18:43:48;;;;;;;11.93;8.75;;;22.20;75.40;;;;;;10451676;28;20029;-58
2021/07/16 18:48:50;;;;;;;12.18;8.05;;;22.20;75.40;;;;;;10451331;28;20064;-57
2021/07/16 18:53:51;;;;;;;17.02;8.93;;;22.10;75.30;;;;;;10451082;28;20025;-57
2021/07/16 18:58:53;;;;;;;19.92;9.02;;;22.10;75.30;;;;;;10451476;28;20039;-58
2021/07/16 19:03:54;;;;;;;15.32;9.07;;;22.10;75.30;;;;;;10452445;28;20552;-57
2021/07/16 19:08:55;;;;;;;14.93;8.57;;;22.10;75.20;;;;;;10451158;28;20029;-58
2021/07/16 19:13:56;;;;;;;11.85;7.78;;;22.10;75.80;;;;;;10452049;28;20025;-57
2021/07/16 19:18:58;;;;;;;13.73;8.48;;;22.10;75.10;;;;;;10454191;28;20021;-58
2021/07/16 19:23:58;;;;;;;12.95;8.00;;;22.10;75.10;;;;;;10461985;28;20131;-57
2021/07/16 19:28:59;;;;;;;16.70;9.15;;;22.10;75.10;;;;;;10454143;28;20040;-57
2021/07/16 19:34:00;;;;;;;13.40;8.00;;;22.10;75.10;;;;;;10457600;28;20024;-58
2021/07/16 19:39:01;;;;;;;17.13;8.88;;;22.10;75.20;;;;;;10460160;28;20057;-58
2021/07/16 19:44:02;;;;;;;15.10;9.05;;;22.10;75.20;;;;;;10444278;28;20039;-57
2021/07/16 19:49:03;;;;;;;13.70;8.95;;;22.10;75.10;;;;;;10461318;28;20373;-58
2021/07/16 19:54:03;;;;;;;18.25;9.40;;;22.10;75.30;;;;;;10442407;28;20037;-58
2021/07/16 19:59:04;;;;;;;12.68;8.75;;;22.10;75.40;;;;;;10457809;28;20645;-57
2021/07/16 20:04:04;;;;;;;11.88;8.68;;;22.10;75.40;;;;;;10441452;28;20126;-57
2021/07/16 20:09:05;;;;;;;16.30;9.18;;;22.10;75.30;;;;;;10457774;28;20093;-58
2021/07/16 20:14:07;;;;;;;16.85;9.77;;;22.10;75.30;;;;;;10444889;28;20055;-58
2021/07/16 20:19:08;;;;;;;12.63;9.30;;;22.10;75.40;;;;;;10458838;28;20028;-58
2021/07/16 20:24:10;;;;;;;16.13;10.00;;;22.00;75.30;;;;;;10442942;28;20033;-58
2021/07/16 20:29:11;;;;;;;23.27;10.00;;;22.00;75.30;;;;;;10446612;28;20029;-58
2021/07/16 20:34:12;;;;;;;13.00;9.10;;;22.00;75.30;;;;;;10458953;28;20548;-56
2021/07/16 20:39:13;;;;;;;13.10;10.27;;;22.00;75.30;;;;;;10458620;28;20095;-59
2021/07/16 20:44:14;;;;;;;13.75;9.00;;;22.00;75.20;;;;;;10458945;28;20029;-58
2021/07/16 20:49:14;;;;;;;14.52;8.68;;;22.00;75.20;;;;;;10457998;28;20473;-58
2021/07/16 20:54:15;;;;;;;12.50;9.52;;;22.00;75.20;;;;;;10458697;28;20056;-58
2021/07/16 20:59:17;;;;;;;13.13;8.70;;;22.00;75.20;;;;;;10452379;28;20115;-58
2021/07/16 21:04:18;;;;;;;12.25;8.63;;;22.00;75.20;;;;;;10458500;28;20094;-58
2021/07/16 21:09:18;;;;;;;11.95;8.55;;;22.00;75.10;;;;;;10451520;28;20171;-58
2021/07/16 21:14:19;;;;;;;12.15;8.15;;;22.00;75.10;;;;;;10457941;28;20025;-58
2021/07/16 21:19:20;;;;;;;11.70;9.00;;;21.90;75.00;;;;;;10458597;28;20037;-58
2021/07/16 21:24:21;;;;;;;9.43;8.50;;;21.90;75.00;;;;;;10462977;28;20170;-58
2021/07/16 21:29:21;;;;;;;10.20;7.80;;;21.90;75.00;;;;;;10457335;28;20103;-58
2021/07/16 21:34:22;;;;;;;14.15;8.95;;;21.90;74.90;;;;;;10439547;28;20075;-58
2021/07/16 21:39:23;;;;;;;10.60;8.13;;;21.90;74.90;;;;;;10439495;28;20125;-58
2021/07/16 21:44:23;;;;;;;10.10;8.07;;;21.90;74.80;;;;;;10456246;28;20099;-56
2021/07/16 21:49:24;;;;;;;10.05;8.07;;;21.90;74.80;;;;;;10456807;28;20096;-58
2021/07/16 21:54:25;;;;;;;11.57;9.20;;;21.90;74.70;;;;;;10456424;28;20040;-58
2021/07/16 21:59:25;;;;;;;10.80;8.48;;;21.90;74.80;;;;;;10455919;28;20037;-58
2021/07/16 22:04:26;;;;;;;10.48;8.07;;;21.90;74.80;;;;;;10438234;28;20033;-57
2021/07/16 22:09:27;;;;;;;11.20;8.20;;;21.90;74.70;;;;;;10456126;28;20422;-58
2021/07/16 22:14:27;;;;;;;9.85;8.40;;;21.90;74.70;;;;;;10455718;28;20056;-58
2021/07/16 22:19:28;;;;;;;8.73;7.82;;;21.90;75.30;;;;;;10458354;28;20129;-58
2021/07/16 22:24:29;;;;;;;13.60;8.60;;;21.90;74.70;;;;;;10459564;28;20037;-58
2021/07/16 22:29:31;;;;;;;10.40;8.07;;;21.90;74.70;;;;;;10455469;28;20079;-58
2021/07/16 22:34:32;;;;;;;9.63;7.70;;;21.90;74.60;;;;;;10455107;28;20508;-57
2021/07/16 22:39:33;;;;;;;11.35;8.18;;;21.80;74.50;;;;;;10455004;28;20087;-58
2021/07/16 22:44:34;;;;;;;11.68;7.57;;;21.90;74.60;;;;;;10454789;28;20124;-57
2021/07/16 22:49:37;;;;;;;9.32;8.20;;;21.90;74.60;;;;;;10454813;28;20561;-58
2021/07/16 22:54:38;;;;;;;10.13;7.93;;;21.80;74.50;;;;;;10458302;28;20029;-58
2021/07/16 22:59:38;;;;;;;9.10;7.63;;;21.80;74.50;;;;;;10463100;28;20033;-58
2021/07/16 23:04:39;;;;;;;11.18;8.48;;;21.80;74.30;;;;;;10445007;28;20029;-58
2021/07/16 23:09:40;;;;;;;9.15;7.50;;;21.80;74.40;;;;;;10445103;28;20033;-58
2021/07/16 23:14:41;;;;;;;9.85;8.10;;;21.80;74.40;;;;;;10462576;28;20094;-58
2021/07/16 23:19:41;;;;;;;10.75;8.00;;;21.80;74.40;;;;;;10466824;28;20111;-58
2021/07/16 23:24:42;;;;;;;11.93;8.20;;;21.80;74.50;;;;;;10464921;28;20115;-58
2021/07/16 23:29:43;;;;;;;10.15;8.93;;;21.80;74.30;;;;;;10462466;28;20504;-58
2021/07/16 23:34:44;;;;;;;10.45;8.35;;;21.80;74.30;;;;;;10461528;28;20115;-58
2021/07/16 23:39:44;;;;;;;11.77;7.97;;;21.80;74.30;;;;;;10461313;28;20041;-58
2021/07/16 23:44:45;;;;;;;10.13;8.07;;;21.80;74.30;;;;;;10461434;28;20365;-58
2021/07/16 23:49:46;;;;;;;11.23;8.15;;;21.80;74.30;;;;;;10461005;28;20053;-58
2021/07/16 23:54:46;;;;;;;10.80;7.80;;;21.80;74.30;;;;;;10461043;28;20110;-58
2021/07/16 23:59:47;;;;;;;12.45;8.77;;;21.80;74.30;;;;;;10461311;28;20458;-58
